Thursday, January 29, 2015
10:18 UTC
  |  Log In   |  Register Free
Airport Search:

Richmond Municipal Airport
(KRID)

Richmond Municipal Airport Diagram
No Airport Diagram Available

FAA data valid effective January 08, 2015 - March 05, 2015 (unless otherwise noted).

 
 
 
 
 
 
 
 
 
 
 
 
 
 

Current Aviation Weather for Richmond Municipal Airport (KRID)

METAR data is unavailable for RID. The nearest METAR location is at KMWO (24.7 nm SE from RID).

The most recent METAR observation for KMWO was updated at: 1014
METAR Summary (Translated METAR)
KMWO
290955Z AUTO 18005KT 10SM OVC070 03/M07 A2997 RMK AO2 T00261066
(24.7 nm SE from KRID)
KHAO
290953Z AUTO VRB06KT 10SM BKN070 OVC080 02/M06 A2996 RMK AO2 SLP151 T00171061
(27.9 nm SE from KRID)
TAF Summary (Translated TAF)
KDAY
(23.7 nm NE from KMWO)
290916Z 2909/3006 18015G23KT P6SM SCT080 OVC120 TEMPO 2910/2911 -SHRA BKN080 FM291600 21018G28KT P6SM VCSH BKN018 OVC120 FM291900 28018G28KT P6SM OVC009 FM300000 29016G24KT P6SM OVC012
  Airport Weather Conditions for KRID

Current weather conditions are
not available for RID


The nearest NOAA weather station
is at MWO, (24.7 nm SE from RID)
  
 Current Weather at MWO
37° F
Mostly Cloudy
South winds at 8.1 mph
MWO NOAA Radar

Pressure: 29.98 in
Humidity: 52%
Wind: South at 8.1 MPH (7 KT)
Dew Point: 20.3°F
Visibility: 10.00 mi


Airport Weather Forecast for KRID

Translated METAR and TAF for KMWO
Translated METAR for KMWO (1018 UTC 29 January 2015)
found at http://aviationweather.gov/adds/metars/
 
METAR text: KMWO 290955Z AUTO 18005KT 10SM OVC070 03/M07 A2997 RMK AO2 T00261066
Conditions at: KMWO (MIDDLETOWN/HOOK , OH, US) observed 0955 UTC 29 January 2015
Temperature: 2.6°C (37°F)
Dewpoint: -6.6°C (20°F) [RH = 51%]
Pressure (altimeter): 29.97 inches Hg (1015.0 mb)
Winds: from the S (180 degrees) at 6 MPH (5 knots; 2.6 m/s)
Visibility: 10 or more miles (16+ km)
Ceiling: 7000 feet AGL
Clouds: overcast cloud deck at 7000 feet AGL
Weather: automated observation with no human augmentation;
there may or may not be significant weather present at this time
Translated TAF for KMWO

There is no translated TAF available for this airport

Find All Airport Services Find A Hotel Find A Rental Car Find A Golf Course Find A Restaurant $100 Hamburger



FBO's on the Field
FBO Company Facility Photos Services Transportation Aviation Fuel Prices: Prices include tax
Catering Weather Repair Courtesy Rental Type 100LL JetA JetA+ MOGAS 8087
 
Richmond Municipal Airport

Currently rated 5 by 1 person
FS:Phillips 66
Last Updated: Jan-22
Login to update fuel prices
SS:
Contact Richmond Municipal AirportMore FBO Information
 
Add another FBO Facility Photos Catering Weather Repair Courtesy Rental Type 100LL JetA JetA+ MOGAS 8087
Services Transportation Aviation Fuel Prices: Prices include tax


model-print
model-print
model-print
model-print